createdAt,value
2018-02-12T00:00:46.355Z,12.57
2018-02-12T00:03:14.410Z,12.45
2018-02-12T00:05:44.190Z,13.90
2018-02-12T00:08:15.370Z,11.23
2018-02-12T00:10:48.774Z,11.70
2018-02-12T00:13:23.426Z,10.40
2018-02-12T00:15:57.078Z,10.98
2018-02-12T00:18:29.766Z,10.77
2018-02-12T00:20:58.610Z,10.88
2018-02-12T00:23:31.514Z,11.10
2018-02-12T00:26:01.402Z,10.10
2018-02-12T00:28:31.374Z,10.82
2018-02-12T00:31:00.184Z,11.10
2018-02-12T00:33:28.223Z,11.48
2018-02-12T00:36:04.206Z,9.63
2018-02-12T00:38:34.114Z,9.70
2018-02-12T00:41:02.179Z,10.63
2018-02-12T00:43:36.770Z,10.55
2018-02-12T00:46:08.490Z,11.43
2018-02-12T00:48:37.562Z,10.48
2018-02-12T00:51:08.670Z,10.52
2018-02-12T00:53:37.498Z,9.15
2018-02-12T00:56:15.775Z,9.98
2018-02-12T00:58:43.830Z,11.38
2018-02-12T01:01:12.951Z,9.95
2018-02-12T01:03:43.010Z,9.48
2018-02-12T01:06:17.002Z,9.65
2018-02-12T01:08:45.046Z,10.00
2018-02-12T01:11:14.862Z,9.30
2018-02-12T01:13:49.375Z,10.27
2018-02-12T01:16:20.461Z,9.50
2018-02-12T01:18:56.974Z,8.32
2018-02-12T01:21:29.962Z,10.15
2018-02-12T01:24:09.190Z,9.48
2018-02-12T01:26:37.222Z,9.18
2018-02-12T01:29:06.280Z,8.82
2018-02-12T01:31:39.141Z,7.87
2018-02-12T01:34:09.758Z,8.25
2018-02-12T01:36:38.030Z,9.20
2018-02-12T01:39:17.954Z,9.10
2018-02-12T01:41:51.502Z,7.90
2018-02-12T01:44:22.446Z,8.75
2018-02-12T01:46:52.126Z,8.48
2018-02-12T01:49:20.173Z,7.57
2018-02-12T01:51:54.310Z,8.48
2018-02-12T01:54:25.690Z,8.13
2018-02-12T01:57:00.438Z,8.48
2018-02-12T01:59:34.337Z,9.02
2018-02-12T02:02:07.525Z,8.48
2018-02-12T02:04:36.466Z,8.27
2018-02-12T02:07:07.957Z,8.93
2018-02-12T02:09:41.718Z,8.00
2018-02-12T02:12:13.814Z,7.43
2018-02-12T02:14:54.105Z,7.45
2018-02-12T02:17:22.156Z,7.75
2018-02-12T02:19:50.182Z,8.32
2018-02-12T02:22:20.215Z,9.25
2018-02-12T02:24:48.238Z,8.48
2018-02-12T02:27:18.193Z,8.20
2018-02-12T02:29:46.218Z,8.05
2018-02-12T02:32:14.234Z,8.30
2018-02-12T02:34:42.269Z,8.70
2018-02-12T02:37:16.818Z,7.95
2018-02-12T02:39:48.273Z,8.70
2018-02-12T02:42:17.258Z,7.90
2018-02-12T02:44:46.266Z,8.35
2018-02-12T02:47:23.457Z,8.27
2018-02-12T02:49:51.469Z,7.97
2018-02-12T02:52:20.498Z,8.77
2018-02-12T02:54:49.485Z,8.80
2018-02-12T02:57:21.470Z,8.75
2018-02-12T02:59:50.269Z,9.50
2018-02-12T03:02:22.005Z,9.70
2018-02-12T03:04:53.765Z,8.75
2018-02-12T03:07:23.781Z,8.20
2018-02-12T03:09:56.265Z,9.45
2018-02-12T03:12:26.074Z,9.55
2018-02-12T03:14:55.050Z,9.05
2018-02-12T03:17:23.070Z,9.75
2018-02-12T03:19:52.014Z,7.90
2018-02-12T03:22:21.005Z,8.93
2018-02-12T03:24:49.030Z,8.63
2018-02-12T03:27:17.050Z,9.32
2018-02-12T03:29:48.899Z,8.85
2018-02-12T03:32:21.599Z,8.20
2018-02-12T03:34:58.118Z,7.70
2018-02-12T03:37:31.689Z,7.45
2018-02-12T03:39:59.713Z,7.18
2018-02-12T03:42:27.733Z,7.10
2018-02-12T03:44:55.754Z,7.78
2018-02-12T03:47:24.753Z,7.20
2018-02-12T03:49:52.797Z,7.10
2018-02-12T03:52:21.798Z,6.75
2018-02-12T03:54:49.825Z,7.12
2018-02-12T03:57:17.845Z,7.45
2018-02-12T03:59:45.873Z,6.95
2018-02-12T04:02:14.909Z,6.55
2018-02-12T04:04:42.935Z,7.70
2018-02-12T04:07:19.873Z,6.85
2018-02-12T04:09:51.821Z,6.18
2018-02-12T04:12:19.850Z,6.78
2018-02-12T04:14:49.801Z,7.32
2018-02-12T04:17:22.593Z,6.82
2018-02-12T04:19:54.685Z,6.28
2018-02-12T04:22:25.509Z,8.20
2018-02-12T04:25:01.813Z,6.80
2018-02-12T04:27:29.845Z,6.68
2018-02-12T04:30:01.890Z,7.15
2018-02-12T04:32:33.761Z,6.10
2018-02-12T04:35:06.529Z,6.18
2018-02-12T04:37:34.565Z,6.82
2018-02-12T04:40:04.507Z,6.47
2018-02-12T04:42:33.501Z,6.95
2018-02-12T04:45:06.685Z,6.30
2018-02-12T04:47:44.461Z,7.18
2018-02-12T04:50:15.533Z,7.18
2018-02-12T04:52:44.586Z,6.12
2018-02-12T04:55:17.945Z,7.53
2018-02-12T04:57:47.725Z,7.57
2018-02-12T05:00:16.709Z,6.72
2018-02-12T05:02:48.170Z,7.18
2018-02-12T05:05:16.201Z,7.40
2018-02-12T05:07:45.230Z,6.70
2018-02-12T05:10:15.253Z,7.82
2018-02-12T05:12:44.249Z,7.57
2018-02-12T05:15:14.261Z,7.85
2018-02-12T05:17:42.297Z,7.50
2018-02-12T05:20:10.349Z,7.97
2018-02-12T05:22:39.297Z,7.95
2018-02-12T05:25:07.333Z,7.90
2018-02-12T05:27:39.725Z,8.27
2018-02-12T05:30:09.749Z,8.80
2018-02-12T05:32:44.761Z,9.68
2018-02-12T05:35:15.849Z,9.70
2018-02-12T05:37:44.645Z,8.82
2018-02-12T05:40:14.413Z,10.63
2018-02-12T05:42:42.453Z,8.98
2018-02-12T05:45:10.516Z,9.20
2018-02-12T05:47:42.861Z,8.70
2018-02-12T05:50:17.589Z,10.93
2018-02-12T05:52:49.344Z,9.10
2018-02-12T05:55:18.133Z,8.40
2018-02-12T05:57:46.160Z,9.98
2018-02-12T06:00:14.193Z,9.95
2018-02-12T06:02:43.149Z,10.43
2018-02-12T06:05:11.961Z,9.88
2018-02-12T06:07:40.921Z,10.25
2018-02-12T06:10:08.961Z,8.40
2018-02-12T06:12:37.993Z,9.65
2018-02-12T06:15:06.049Z,10.15
2018-02-12T06:17:40.749Z,9.82
2018-02-12T06:20:21.310Z,10.95
2018-02-12T06:22:49.325Z,10.23
2018-02-12T06:25:18.248Z,8.85
2018-02-12T06:27:52.113Z,9.05
2018-02-12T06:30:20.146Z,9.32
2018-02-12T06:32:48.176Z,8.80
2018-02-12T06:35:16.972Z,11.20
2018-02-12T06:37:46.945Z,9.45
2018-02-12T06:40:14.972Z,8.27
2018-02-12T06:42:48.741Z,9.18
2018-02-12T06:45:20.580Z,8.60
2018-02-12T06:47:54.892Z,8.25
2018-02-12T06:50:23.901Z,8.70
2018-02-12T06:52:51.924Z,7.62
2018-02-12T06:55:19.952Z,7.93
2018-02-12T06:57:53.320Z,8.15
2018-02-12T07:00:27.144Z,8.10
2018-02-12T07:03:05.615Z,8.02
2018-02-12T07:05:37.608Z,7.90
2018-02-12T07:08:05.643Z,8.60
2018-02-12T07:10:34.657Z,9.68
2018-02-12T07:13:02.686Z,9.60
2018-02-12T07:15:30.725Z,8.82
2018-02-12T07:18:03.480Z,6.70
2018-02-12T07:20:41.820Z,7.55
2018-02-12T07:23:12.945Z,6.87
2018-02-12T07:25:41.943Z,7.00
2018-02-12T07:28:10.932Z,6.78
2018-02-12T07:30:38.952Z,6.45
2018-02-12T07:33:08.920Z,7.40
2018-02-12T07:35:36.944Z,5.85
2018-02-12T07:38:06.892Z,7.00
2018-02-12T07:40:35.898Z,8.30
2018-02-12T07:43:04.888Z,5.95
2018-02-12T07:45:32.925Z,6.03
2018-02-12T07:48:05.673Z,6.07
2018-02-12T07:50:33.684Z,5.80
2018-02-12T07:53:11.788Z,5.47
2018-02-12T07:55:44.064Z,5.95
2018-02-12T07:58:15.854Z,5.20
2018-02-12T08:00:48.492Z,5.50
2018-02-12T08:03:20.164Z,5.68
2018-02-12T08:05:51.940Z,5.72
2018-02-12T08:08:43.736Z,5.40
2018-02-12T08:11:20.092Z,7.25
2018-02-12T08:13:54.832Z,7.43
2018-02-12T08:16:26.888Z,7.05
2018-02-12T08:19:03.279Z,7.07
2018-02-12T08:21:44.240Z,10.35
2018-02-12T08:24:12.285Z,8.52
2018-02-12T08:26:43.350Z,7.18
2018-02-12T08:29:17.956Z,7.60
2018-02-12T08:34:42.072Z,5.78
2018-02-12T08:37:20.244Z,5.40
2018-02-12T08:39:54.252Z,6.75
2018-02-12T08:42:42.596Z,7.85
2018-02-12T08:45:18.018Z,7.10
2018-02-12T08:47:46.044Z,6.32
2018-02-12T08:50:18.920Z,8.65
2018-02-12T08:52:52.587Z,5.12
2018-02-12T08:55:20.600Z,5.45
2018-02-12T08:57:48.620Z,6.50
2018-02-12T09:00:21.260Z,6.05
2018-02-12T09:02:49.280Z,4.87
2018-02-12T09:05:18.204Z,4.85
2018-02-12T09:07:49.456Z,6.25
2018-02-12T09:10:17.476Z,5.30
2018-02-12T09:12:46.413Z,6.30
2018-02-12T09:15:14.444Z,20.33
2018-02-12T09:17:48.576Z,5.12
2018-02-12T09:20:18.548Z,14.85
2018-02-12T09:23:04.053Z,6.35
2018-02-12T09:25:32.972Z,5.50
2018-02-12T09:28:06.332Z,6.90
2018-02-12T09:30:47.576Z,7.07
2018-02-12T09:33:15.600Z,5.03
2018-02-12T09:35:43.624Z,5.18
2018-02-12T09:41:07.183Z,6.70
2018-02-12T09:46:34.931Z,6.28
2018-02-12T09:49:19.312Z,7.43
2018-02-12T09:51:52.439Z,6.68
2018-02-12T09:54:20.476Z,9.00
2018-02-12T09:57:00.060Z,7.10
2018-02-12T09:59:41.076Z,6.25
2018-02-12T10:02:19.660Z,7.50
2018-02-12T10:05:11.795Z,8.65
2018-02-12T10:07:45.439Z,5.62
2018-02-12T10:10:19.877Z,10.25
2018-02-12T10:13:10.771Z,7.68
2018-02-12T10:15:46.307Z,13.15
2018-02-12T10:18:33.492Z,9.25
2018-02-12T10:21:07.979Z,5.05
2018-02-12T10:23:41.976Z,5.05
2018-02-12T10:26:13.854Z,5.95
2018-02-12T10:28:45.760Z,5.80
2018-02-12T10:31:19.707Z,3.50
2018-02-12T10:33:49.600Z,3.40
2018-02-12T10:39:18.782Z,4.57
2018-02-12T10:42:02.131Z,4.15
2018-02-12T10:44:40.112Z,4.22
2018-02-12T10:47:18.740Z,8.10
2018-02-12T10:49:49.864Z,7.93
2018-02-12T10:52:19.831Z,7.12
2018-02-12T10:54:49.751Z,8.82
2018-02-12T10:57:18.728Z,6.45
2018-02-12T10:59:47.708Z,6.10
2018-02-12T11:02:20.255Z,5.78
2018-02-12T11:04:50.231Z,4.40
2018-02-12T11:07:19.143Z,4.75
2018-02-12T11:09:48.836Z,3.03
2018-02-12T11:12:20.683Z,3.53
2018-02-12T11:14:53.423Z,3.30
2018-02-12T11:17:25.208Z,2.83
2018-02-12T11:19:54.195Z,3.00
2018-02-12T11:22:28.523Z,3.40
2018-02-12T11:24:59.776Z,3.65
2018-02-12T11:27:27.820Z,4.50
2018-02-12T11:29:59.495Z,3.40
2018-02-12T11:32:27.523Z,4.45
2018-02-12T11:34:59.887Z,4.78
2018-02-12T11:37:27.919Z,3.08
2018-02-12T11:39:55.928Z,3.78
2018-02-12T11:42:29.067Z,4.25
2018-02-12T11:44:57.979Z,3.58
2018-02-12T11:47:28.667Z,3.17
2018-02-12T11:50:03.371Z,2.97
2018-02-12T11:52:35.426Z,2.97
2018-02-12T11:55:03.403Z,3.15
2018-02-12T11:57:33.351Z,2.92
2018-02-12T12:00:02.339Z,3.60
2018-02-12T12:02:40.119Z,3.20
2018-02-12T12:05:18.808Z,5.30
2018-02-12T12:07:46.783Z,4.78
2018-02-12T12:10:14.826Z,4.07
2018-02-12T12:12:42.823Z,3.00
2018-02-12T12:15:12.739Z,2.95
2018-02-12T12:17:40.759Z,2.95
2018-02-12T12:20:12.215Z,3.83
2018-02-12T12:22:41.215Z,2.95
2018-02-12T12:25:09.243Z,3.17
2018-02-12T12:27:41.339Z,3.83
2018-02-12T12:30:09.371Z,3.25
2018-02-12T12:32:43.623Z,3.25
2018-02-12T12:35:11.646Z,4.18
2018-02-12T12:37:39.662Z,3.30
2018-02-12T12:40:07.675Z,3.00
2018-02-12T12:42:35.699Z,3.28
2018-02-12T12:45:04.615Z,2.50
2018-02-12T12:47:36.679Z,2.08
2018-02-12T12:50:06.671Z,2.25
2018-02-12T12:52:35.583Z,2.78
2018-02-12T12:55:06.323Z,2.47
2018-02-12T12:57:39.535Z,3.40
2018-02-12T13:00:07.555Z,4.72
2018-02-12T13:02:36.535Z,4.22
2018-02-12T13:05:05.527Z,3.10
2018-02-12T13:07:47.879Z,2.53
2018-02-12T13:10:18.567Z,3.53
2018-02-12T13:12:47.563Z,3.33
2018-02-12T13:15:16.543Z,3.50
2018-02-12T13:17:52.095Z,2.92
2018-02-12T13:20:20.107Z,3.87
2018-02-12T13:22:49.798Z,4.72
2018-02-12T13:25:18.783Z,3.25
2018-02-12T13:27:48.820Z,2.33
2018-02-12T13:30:20.095Z,2.30
2018-02-12T13:32:55.319Z,3.72
2018-02-12T13:35:23.343Z,3.20
2018-02-12T13:38:01.015Z,1.87
2018-02-12T13:40:29.059Z,2.97
2018-02-12T13:42:57.842Z,2.50
2018-02-12T13:45:25.863Z,2.47
2018-02-12T13:47:54.842Z,2.20
2018-02-12T13:50:27.386Z,2.65
2018-02-12T13:52:56.391Z,2.80
2018-02-12T13:55:24.423Z,3.25
2018-02-12T13:57:54.199Z,3.78
2018-02-12T14:00:32.362Z,4.00
2018-02-12T14:03:03.546Z,3.40
2018-02-12T14:05:36.163Z,2.10
2018-02-12T14:08:04.950Z,2.10
2018-02-12T14:10:33.738Z,1.90
2018-02-12T14:13:02.923Z,1.90
2018-02-12T14:15:36.243Z,2.40
2018-02-12T14:18:04.274Z,2.78
2018-02-12T14:20:33.263Z,3.15
2018-02-12T14:23:06.458Z,4.40
2018-02-12T14:25:56.194Z,5.87
2018-02-12T14:28:43.354Z,2.40
2018-02-12T14:31:14.687Z,2.55
2018-02-12T14:33:47.550Z,2.40
2018-02-12T14:36:15.555Z,2.90
2018-02-12T14:38:47.146Z,3.20
2018-02-12T14:41:18.855Z,2.55
2018-02-12T14:43:46.875Z,3.67
2018-02-12T14:46:18.683Z,6.22
2018-02-12T14:48:48.706Z,3.55
2018-02-12T14:51:18.625Z,3.30
2018-02-12T14:54:06.027Z,3.00
2018-02-12T14:56:35.999Z,3.00
2018-02-12T14:59:05.987Z,3.67
2018-02-12T15:01:57.242Z,3.33
2018-02-12T15:04:25.267Z,3.60
2018-02-12T15:07:00.558Z,3.00
2018-02-12T15:12:25.615Z,3.58
2018-02-12T15:14:54.922Z,2.58
2018-02-12T15:17:30.558Z,3.00
2018-02-12T15:20:02.215Z,6.75
2018-02-12T15:22:50.618Z,3.12
2018-02-12T15:25:19.554Z,2.40
2018-02-12T15:27:57.835Z,4.18
2018-02-12T15:30:27.786Z,6.15
2018-02-12T15:32:57.379Z,2.80
2018-02-12T15:35:26.302Z,2.45
2018-02-12T15:37:55.078Z,1.67
2018-02-12T15:40:23.107Z,2.10
2018-02-12T15:43:16.654Z,1.50
2018-02-12T15:45:57.710Z,1.65
2018-02-12T15:48:28.454Z,1.90
2018-02-12T15:50:58.346Z,1.75
2018-02-12T15:56:21.498Z,2.47
2018-02-12T15:58:54.666Z,2.80
2018-02-12T16:04:17.658Z,2.10
2018-02-12T16:06:51.124Z,3.20
2018-02-12T16:09:19.154Z,2.40
2018-02-12T16:11:49.826Z,2.78
2018-02-12T16:14:17.850Z,3.00
2018-02-12T16:16:53.362Z,5.15
2018-02-12T16:19:21.371Z,7.37
2018-02-12T16:21:51.050Z,3.33
2018-02-12T16:24:20.330Z,6.05
2018-02-12T16:26:49.181Z,9.60
2018-02-12T16:29:18.094Z,4.12
2018-02-12T16:31:46.149Z,6.68
2018-02-12T16:34:31.414Z,9.45
2018-02-12T16:36:59.452Z,18.15
2018-02-12T16:39:27.465Z,7.65
2018-02-12T16:41:58.865Z,11.43
2018-02-12T16:44:26.890Z,12.77
2018-02-12T16:46:58.481Z,8.35
2018-02-12T16:49:26.501Z,12.68
2018-02-12T16:51:54.535Z,13.35
2018-02-12T16:54:27.102Z,11.95
2018-02-12T16:56:59.870Z,10.75
2018-02-12T16:59:34.046Z,13.30
2018-02-12T17:02:02.982Z,10.00
2018-02-12T17:04:33.001Z,11.20
2018-02-12T17:07:08.414Z,8.75
2018-02-12T17:09:36.421Z,5.75
2018-02-12T17:12:10.973Z,5.28
2018-02-12T17:14:39.034Z,5.95
2018-02-12T17:17:07.821Z,8.30
2018-02-12T17:19:42.006Z,14.65
2018-02-12T17:22:20.721Z,14.95
2018-02-12T17:24:53.666Z,8.52
2018-02-12T17:27:39.954Z,17.17
2018-02-12T17:30:17.521Z,8.13
2018-02-12T17:32:47.313Z,15.82
2018-02-12T17:35:21.901Z,11.30
2018-02-12T17:37:51.861Z,7.97
2018-02-12T17:40:27.349Z,9.40
2018-02-12T17:42:55.385Z,10.18
2018-02-12T17:45:25.173Z,12.00
2018-02-12T17:47:53.205Z,9.65
2018-02-12T17:50:41.045Z,11.25
2018-02-12T17:53:09.073Z,9.93
2018-02-12T17:55:42.725Z,10.07
2018-02-12T17:58:11.674Z,11.23
2018-02-12T18:00:42.385Z,11.02
2018-02-12T18:03:18.077Z,9.55
2018-02-12T18:05:52.929Z,9.95
2018-02-12T18:08:40.121Z,7.90
2018-02-12T18:11:11.941Z,9.32
2018-02-12T18:13:48.469Z,6.43
2018-02-12T18:16:37.113Z,7.40
2018-02-12T18:19:09.446Z,4.60
2018-02-12T18:21:52.592Z,9.27
2018-02-12T18:24:25.969Z,4.45
2018-02-12T18:26:57.841Z,4.65
2018-02-12T18:29:26.629Z,5.78
2018-02-12T18:31:59.521Z,5.25
2018-02-12T18:34:29.485Z,5.35
2018-02-12T18:36:58.473Z,6.40
2018-02-12T18:39:27.513Z,7.30
2018-02-12T18:41:59.864Z,12.13
2018-02-12T18:44:36.497Z,14.48
2018-02-12T18:47:04.553Z,14.43
2018-02-12T18:49:37.270Z,15.02
2018-02-12T18:52:17.873Z,12.23
2018-02-12T18:54:49.021Z,9.13
2018-02-12T18:57:17.059Z,15.18
2018-02-12T18:59:47.765Z,17.60
2018-02-12T19:02:16.697Z,17.08
2018-02-12T19:04:49.121Z,16.15
2018-02-12T19:07:21.865Z,18.37
2018-02-12T19:09:53.605Z,16.95
2018-02-12T19:12:23.389Z,14.18
2018-02-12T19:14:56.185Z,10.52
2018-02-12T19:17:25.923Z,16.25
2018-02-12T19:19:55.901Z,18.08
2018-02-12T19:22:45.371Z,17.10
2018-02-12T19:25:19.877Z,12.07
2018-02-12T19:27:53.685Z,8.18
2018-02-12T19:30:22.693Z,10.32
2018-02-12T19:32:58.533Z,10.20
2018-02-12T19:35:33.865Z,10.27
2018-02-12T19:38:02.877Z,9.27
2018-02-12T19:40:31.873Z,10.30
2018-02-12T19:43:03.142Z,11.43
2018-02-12T19:45:31.161Z,15.95
2018-02-12T19:48:00.173Z,13.82
2018-02-12T19:50:30.220Z,12.90
2018-02-12T19:53:02.461Z,12.30
2018-02-12T19:55:31.469Z,13.35
2018-02-12T19:58:07.501Z,15.95
2018-02-12T20:00:36.516Z,17.23
2018-02-12T20:03:09.289Z,15.70
2018-02-12T20:06:00.188Z,14.40
2018-02-12T20:08:34.172Z,11.38
2018-02-12T20:11:06.885Z,12.85
2018-02-12T20:13:41.488Z,15.38
2018-02-12T20:16:15.256Z,18.30
2018-02-12T20:18:47.285Z,21.05
2018-02-12T20:21:16.101Z,14.10
2018-02-12T20:23:44.156Z,18.92
2018-02-12T20:26:15.601Z,14.70
2018-02-12T20:28:50.480Z,13.38
2018-02-12T20:31:19.521Z,13.23
2018-02-12T20:33:58.725Z,12.35
2018-02-12T20:36:27.733Z,13.35
2018-02-12T20:38:59.701Z,11.77
2018-02-12T20:41:29.729Z,12.75
2018-02-12T20:43:58.532Z,14.30
2018-02-12T20:46:27.489Z,12.05
2018-02-12T20:48:57.509Z,12.98
2018-02-12T20:51:26.569Z,11.82
2018-02-12T20:54:00.639Z,12.27
2018-02-12T20:56:30.676Z,16.90
2018-02-12T20:58:59.064Z,17.83
2018-02-12T21:01:44.456Z,11.70
2018-02-12T21:04:13.521Z,19.33
2018-02-12T21:06:42.620Z,13.82
2018-02-12T21:09:10.660Z,13.75
2018-02-12T21:11:38.753Z,12.95
2018-02-12T21:14:08.721Z,14.30
2018-02-12T21:16:36.855Z,13.07
2018-02-12T21:19:08.293Z,12.95
2018-02-12T21:21:43.007Z,11.82
2018-02-12T21:24:17.929Z,12.18
2018-02-12T21:26:46.956Z,11.35
2018-02-12T21:29:16.901Z,10.90
2018-02-12T21:31:45.912Z,12.48
2018-02-12T21:34:16.232Z,11.90
2018-02-12T21:36:44.328Z,11.98
2018-02-12T21:39:13.668Z,11.27
2018-02-12T21:41:43.668Z,11.50
2018-02-12T21:44:11.768Z,11.18
2018-02-12T21:46:43.392Z,12.63
2018-02-12T21:49:12.384Z,11.88
2018-02-12T21:51:42.416Z,12.60
2018-02-12T21:54:21.792Z,13.02
2018-02-12T21:57:08.328Z,13.13
2018-02-12T21:59:39.016Z,13.18
2018-02-12T22:02:11.004Z,12.80
2018-02-12T22:04:40.096Z,13.43
2018-02-12T22:07:08.956Z,13.35
2018-02-12T22:09:38.052Z,13.15
2018-02-12T22:12:07.112Z,15.77
2018-02-12T22:14:36.216Z,15.40
2018-02-12T22:17:10.460Z,13.45
2018-02-12T22:19:38.529Z,13.68
2018-02-12T22:22:07.596Z,15.05
2018-02-12T22:24:42.568Z,14.35
2018-02-12T22:27:15.436Z,14.32
2018-02-12T22:29:44.512Z,14.07
2018-02-12T22:32:15.844Z,14.90
2018-02-12T22:34:48.508Z,14.52
2018-02-12T22:37:19.376Z,13.77
2018-02-12T22:39:47.412Z,14.85
2018-02-12T22:42:17.412Z,13.93
2018-02-12T22:44:49.272Z,15.75
2018-02-12T22:47:26.176Z,14.30
2018-02-12T22:49:56.180Z,14.68
2018-02-12T22:52:26.220Z,15.25
2018-02-12T22:54:55.308Z,14.77
2018-02-12T22:57:26.152Z,13.10
2018-02-12T22:59:54.251Z,14.75
2018-02-12T23:02:22.344Z,15.95
2018-02-12T23:04:55.684Z,14.90
2018-02-12T23:07:28.668Z,13.45
2018-02-12T23:09:58.699Z,14.68
2018-02-12T23:12:26.752Z,14.85
2018-02-12T23:14:57.679Z,13.73
2018-02-12T23:17:28.268Z,13.55
2018-02-12T23:19:57.280Z,14.52
2018-02-12T23:22:30.352Z,15.52
2018-02-12T23:24:59.588Z,14.85
2018-02-12T23:27:28.592Z,13.50
2018-02-12T23:29:56.669Z,14.35
2018-02-12T23:32:24.696Z,14.55
2018-02-12T23:34:53.548Z,14.45
2018-02-12T23:37:23.332Z,14.70
2018-02-12T23:39:54.844Z,15.32
2018-02-12T23:42:24.679Z,13.88
2018-02-12T23:44:53.631Z,15.07
2018-02-12T23:47:28.048Z,15.43
2018-02-12T23:49:57.079Z,15.10
2018-02-12T23:52:26.060Z,13.27
2018-02-12T23:54:56.432Z,12.88
2018-02-12T23:57:29.077Z,13.35
